sensor_id;sensor_type;location;lat;lon;timestamp;temperature;humidity
39621;DHT22;25309;48.686;9.170;2022-11-12T04:02:00;5.30;99.90
39621;DHT22;25309;48.686;9.170;2022-11-12T04:04:45;5.30;99.90
39621;DHT22;25309;48.686;9.170;2022-11-12T04:07:50;5.40;99.90
39621;DHT22;25309;48.686;9.170;2022-11-12T04:11:19;5.40;99.90
39621;DHT22;25309;48.686;9.170;2022-11-12T04:14:05;5.20;99.90
39621;DHT22;25309;48.686;9.170;2022-11-12T04:16:50;5.10;99.90
39621;DHT22;25309;48.686;9.170;2022-11-12T04:19:56;5.00;99.90
39621;DHT22;25309;48.686;9.170;2022-11-12T04:23:00;5.00;99.90
39621;DHT22;25309;48.686;9.170;2022-11-12T04:25:46;5.00;99.90
39621;DHT22;25309;48.686;9.170;2022-11-12T04:28:50;5.00;99.90
39621;DHT22;25309;48.686;9.170;2022-11-12T04:31:54;5.00;99.90
39621;DHT22;25309;48.686;9.170;2022-11-12T04:34:40;5.00;99.90
39621;DHT22;25309;48.686;9.170;2022-11-12T04:37:28;5.00;99.90
39621;DHT22;25309;48.686;9.170;2022-11-12T04:40:16;5.10;99.90
39621;DHT22;25309;48.686;9.170;2022-11-12T04:43:20;5.20;99.90
39621;DHT22;25309;48.686;9.170;2022-11-12T04:46:24;5.20;99.90
39621;DHT22;25309;48.686;9.170;2022-11-12T04:49:10;5.30;99.90
39621;DHT22;25309;48.686;9.170;2022-11-12T04:51:55;5.40;99.90
39621;DHT22;25309;48.686;9.170;2022-11-12T04:54:51;5.40;99.90
39621;DHT22;25309;48.686;9.170;2022-11-12T04:57:37;5.50;99.90
39621;DHT22;25309;48.686;9.170;2022-11-12T05:00:23;5.50;99.90
39621;DHT22;25309;48.686;9.170;2022-11-12T05:03:08;5.60;99.90
39621;DHT22;25309;48.686;9.170;2022-11-12T05:05:59;5.60;99.90
39621;DHT22;25309;48.686;9.170;2022-11-12T05:08:45;5.60;99.90
39621;DHT22;25309;48.686;9.170;2022-11-12T05:11:32;5.60;99.90
39621;DHT22;25309;48.686;9.170;2022-11-12T05:14:18;5.60;99.90
39621;DHT22;25309;48.686;9.170;2022-11-12T05:17:04;5.60;99.90
39621;DHT22;25309;48.686;9.170;2022-11-12T05:19:49;5.50;99.90
39621;DHT22;25309;48.686;9.170;2022-11-12T05:22:34;5.50;99.90
39621;DHT22;25309;48.686;9.170;2022-11-12T05:25:34;5.50;99.90
39621;DHT22;25309;48.686;9.170;2022-11-12T05:28:22;5.60;99.90
39621;DHT22;25309;48.686;9.170;2022-11-12T05:31:07;5.60;99.90
39621;DHT22;25309;48.686;9.170;2022-11-12T05:33:53;5.70;99.90
39621;DHT22;25309;48.686;9.170;2022-11-12T05:36:39;5.70;99.90
39621;DHT22;25309;48.686;9.170;2022-11-12T05:39:24;5.70;99.90
39621;DHT22;25309;48.686;9.170;2022-11-12T05:42:10;5.70;99.90
39621;DHT22;25309;48.686;9.170;2022-11-12T05:44:59;5.70;99.90
39621;DHT22;25309;48.686;9.170;2022-11-12T05:47:45;5.80;99.90
39621;DHT22;25309;48.686;9.170;2022-11-12T05:50:31;5.80;99.90
39621;DHT22;25309;48.686;9.170;2022-11-12T05:53:29;5.70;99.90
39621;DHT22;25309;48.686;9.170;2022-11-12T05:56:15;5.70;99.90
39621;DHT22;25309;48.686;9.170;2022-11-12T05:59:00;5.60;99.90
39621;DHT22;25309;48.686;9.170;2022-11-12T06:01:48;5.50;99.90
39621;DHT22;25309;48.686;9.170;2022-11-12T06:04:33;5.40;99.90
39621;DHT22;25309;48.686;9.170;2022-11-12T06:07:19;5.30;99.90
39621;DHT22;25309;48.686;9.170;2022-11-12T06:10:05;5.10;99.90
39621;DHT22;25309;48.686;9.170;2022-11-12T06:12:52;5.00;99.90
39621;DHT22;25309;48.686;9.170;2022-11-12T06:15:37;5.00;99.90
39621;DHT22;25309;48.686;9.170;2022-11-12T06:18:25;5.00;99.90
39621;DHT22;25309;48.686;9.170;2022-11-12T06:21:11;5.00;99.90
39621;DHT22;25309;48.686;9.170;2022-11-12T06:24:09;5.00;99.90
39621;DHT22;25309;48.686;9.170;2022-11-12T06:26:54;5.10;99.90
39621;DHT22;25309;48.686;9.170;2022-11-12T06:29:40;5.10;99.90
39621;DHT22;25309;48.686;9.170;2022-11-12T06:32:26;5.20;99.90
39621;DHT22;25309;48.686;9.170;2022-11-12T06:35:13;5.20;99.90
39621;DHT22;25309;48.686;9.170;2022-11-12T06:37:58;5.20;99.90
39621;DHT22;25309;48.686;9.170;2022-11-12T06:40:43;5.10;99.90
39621;DHT22;25309;48.686;9.170;2022-11-12T06:43:31;5.20;99.90
39621;DHT22;25309;48.686;9.170;2022-11-12T06:46:16;5.20;99.90
39621;DHT22;25309;48.686;9.170;2022-11-12T06:49:02;5.20;99.90
39621;DHT22;25309;48.686;9.170;2022-11-12T06:51:50;5.20;99.90
39621;DHT22;25309;48.686;9.170;2022-11-12T06:54:36;5.20;99.90
39621;DHT22;25309;48.686;9.170;2022-11-12T06:57:21;5.20;99.90
39621;DHT22;25309;48.686;9.170;2022-11-12T07:00:08;5.20;99.90
39621;DHT22;25309;48.686;9.170;2022-11-12T07:02:56;5.20;99.90
39621;DHT22;25309;48.686;9.170;2022-11-12T07:05:41;5.20;99.90
39621;DHT22;25309;48.686;9.170;2022-11-12T07:08:28;5.30;99.90
39621;DHT22;25309;48.686;9.170;2022-11-12T07:11:15;5.40;99.90
39621;DHT22;25309;48.686;9.170;2022-11-12T07:14:01;5.40;99.90
39621;DHT22;25309;48.686;9.170;2022-11-12T07:16:48;5.60;99.90
39621;DHT22;25309;48.686;9.170;2022-11-12T07:19:34;5.70;99.90
39621;DHT22;25309;48.686;9.170;2022-11-12T07:22:20;5.80;99.90
39621;DHT22;25309;48.686;9.170;2022-11-12T07:25:08;5.90;99.90
39621;DHT22;25309;48.686;9.170;2022-11-12T07:27:53;6.00;99.90
39621;DHT22;25309;48.686;9.170;2022-11-12T07:30:39;6.10;99.90
39621;DHT22;25309;48.686;9.170;2022-11-12T07:33:25;6.20;99.90
39621;DHT22;25309;48.686;9.170;2022-11-12T07:36:13;6.20;99.90
39621;DHT22;25309;48.686;9.170;2022-11-12T07:38:59;6.40;99.90
39621;DHT22;25309;48.686;9.170;2022-11-12T07:41:46;6.60;99.90
39621;DHT22;25309;48.686;9.170;2022-11-12T07:44:32;6.70;99.90
39621;DHT22;25309;48.686;9.170;2022-11-12T07:47:17;6.80;99.90
39621;DHT22;25309;48.686;9.170;2022-11-12T07:50:03;7.00;99.90
39621;DHT22;25309;48.686;9.170;2022-11-12T07:52:49;7.10;99.90
39621;DHT22;25309;48.686;9.170;2022-11-12T07:55:34;7.10;99.90
39621;DHT22;25309;48.686;9.170;2022-11-12T07:58:21;7.10;99.90
39621;DHT22;25309;48.686;9.170;2022-11-12T08:01:08;7.10;99.90
39621;DHT22;25309;48.686;9.170;2022-11-12T08:03:54;7.30;99.90
39621;DHT22;25309;48.686;9.170;2022-11-12T08:06:39;7.40;99.90
39621;DHT22;25309;48.686;9.170;2022-11-12T08:09:25;7.50;99.90
39621;DHT22;25309;48.686;9.170;2022-11-12T08:12:10;7.80;99.90
39621;DHT22;25309;48.686;9.170;2022-11-12T08:14:57;8.20;99.90
39621;DHT22;25309;48.686;9.170;2022-11-12T08:17:43;8.50;99.90
39621;DHT22;25309;48.686;9.170;2022-11-12T08:20:29;8.80;99.90
39621;DHT22;25309;48.686;9.170;2022-11-12T08:23:14;9.10;99.90
39621;DHT22;25309;48.686;9.170;2022-11-12T08:26:02;9.40;99.90
39621;DHT22;25309;48.686;9.170;2022-11-12T08:28:48;9.80;99.90
39621;DHT22;25309;48.686;9.170;2022-11-12T08:31:35;10.10;99.90
39621;DHT22;25309;48.686;9.170;2022-11-12T08:34:20;10.50;99.90
39621;DHT22;25309;48.686;9.170;2022-11-12T08:37:07;10.90;99.90
39621;DHT22;25309;48.686;9.170;2022-11-12T08:39:52;11.20;99.90
39621;DHT22;25309;48.686;9.170;2022-11-12T08:42:38;11.50;99.90
39621;DHT22;25309;48.686;9.170;2022-11-12T08:45:24;11.80;99.90
39621;DHT22;25309;48.686;9.170;2022-11-12T08:48:12;12.00;99.90
39621;DHT22;25309;48.686;9.170;2022-11-12T08:51:00;12.20;99.90
39621;DHT22;25309;48.686;9.170;2022-11-12T08:53:46;12.40;99.90
39621;DHT22;25309;48.686;9.170;2022-11-12T08:56:32;12.60;99.90
39621;DHT22;25309;48.686;9.170;2022-11-12T08:59:18;12.80;99.90
39621;DHT22;25309;48.686;9.170;2022-11-12T09:02:04;12.90;99.90
39621;DHT22;25309;48.686;9.170;2022-11-12T09:04:52;12.80;99.90
39621;DHT22;25309;48.686;9.170;2022-11-12T09:07:38;12.80;99.90
39621;DHT22;25309;48.686;9.170;2022-11-12T09:10:39;12.90;99.90
39621;DHT22;25309;48.686;9.170;2022-11-12T09:13:24;13.00;99.90
39621;DHT22;25309;48.686;9.170;2022-11-12T09:16:10;13.20;99.90
39621;DHT22;25309;48.686;9.170;2022-11-12T09:18:55;13.40;99.90
39621;DHT22;25309;48.686;9.170;2022-11-12T09:21:42;13.70;99.90
39621;DHT22;25309;48.686;9.170;2022-11-12T09:24:28;13.90;99.90
39621;DHT22;25309;48.686;9.170;2022-11-12T09:27:14;14.10;99.90
39621;DHT22;25309;48.686;9.170;2022-11-12T09:29:59;14.20;99.90
39621;DHT22;25309;48.686;9.170;2022-11-12T09:32:45;14.20;99.90
39621;DHT22;25309;48.686;9.170;2022-11-12T09:35:31;14.20;99.90
39621;DHT22;25309;48.686;9.170;2022-11-12T09:38:18;14.10;99.90
39621;DHT22;25309;48.686;9.170;2022-11-12T09:41:16;14.10;99.90
39621;DHT22;25309;48.686;9.170;2022-11-12T09:44:08;14.10;99.90
39621;DHT22;25309;48.686;9.170;2022-11-12T09:46:58;14.10;99.90
39621;DHT22;25309;48.686;9.170;2022-11-12T09:49:49;14.20;99.90
39621;DHT22;25309;48.686;9.170;2022-11-12T09:52:36;14.30;99.90
39621;DHT22;25309;48.686;9.170;2022-11-12T09:55:29;14.30;99.90
39621;DHT22;25309;48.686;9.170;2022-11-12T09:58:17;14.30;99.90
39621;DHT22;25309;48.686;9.170;2022-11-12T10:01:12;14.40;99.90
39621;DHT22;25309;48.686;9.170;2022-11-12T10:04:07;14.50;99.90
39621;DHT22;25309;48.686;9.170;2022-11-12T10:07:03;14.50;99.90
39621;DHT22;25309;48.686;9.170;2022-11-12T10:10:00;14.50;99.90
39621;DHT22;25309;48.686;9.170;2022-11-12T10:12:59;14.50;99.90
39621;DHT22;25309;48.686;9.170;2022-11-12T10:16:02;14.50;99.90
39621;DHT22;25309;48.686;9.170;2022-11-12T10:19:48;14.50;99.90
39621;DHT22;25309;48.686;9.170;2022-11-12T10:22:49;14.50;99.90
39621;DHT22;25309;48.686;9.170;2022-11-12T10:25:38;14.50;99.90
39621;DHT22;25309;48.686;9.170;2022-11-12T10:28:29;14.50;99.90
39621;DHT22;25309;48.686;9.170;2022-11-12T10:31:22;14.60;99.90
39621;DHT22;25309;48.686;9.170;2022-11-12T10:34:15;14.60;99.90
39621;DHT22;25309;48.686;9.170;2022-11-12T10:37:04;14.60;99.90
39621;DHT22;25309;48.686;9.170;2022-11-12T10:39:50;14.70;99.90
39621;DHT22;25309;48.686;9.170;2022-11-12T10:42:55;14.90;99.90
39621;DHT22;25309;48.686;9.170;2022-11-12T10:45:44;15.00;99.90
39621;DHT22;25309;48.686;9.170;2022-11-12T10:48:31;15.20;99.80
39621;DHT22;25309;48.686;9.170;2022-11-12T10:51:23;15.20;99.30
39621;DHT22;25309;48.686;9.170;2022-11-12T10:54:29;15.30;99.80
39621;DHT22;25309;48.686;9.170;2022-11-12T10:57:21;15.30;99.50
39621;DHT22;25309;48.686;9.170;2022-11-12T11:00:15;15.40;99.40
39621;DHT22;25309;48.686;9.170;2022-11-12T11:03:06;15.50;99.90
39621;DHT22;25309;48.686;9.170;2022-11-12T11:05:54;15.60;99.80
39621;DHT22;25309;48.686;9.170;2022-11-12T11:08:43;15.80;99.40
39621;DHT22;25309;48.686;9.170;2022-11-12T11:11:30;15.90;99.00
39621;DHT22;25309;48.686;9.170;2022-11-12T11:14:28;16.00;99.30
39621;DHT22;25309;48.686;9.170;2022-11-12T11:17:16;16.10;98.80
39621;DHT22;25309;48.686;9.170;2022-11-12T11:20:05;16.20;98.80
39621;DHT22;25309;48.686;9.170;2022-11-12T11:23:01;16.30;98.80
39621;DHT22;25309;48.686;9.170;2022-11-12T11:25:50;16.20;98.50
39621;DHT22;25309;48.686;9.170;2022-11-12T11:28:41;16.10;98.30
39621;DHT22;25309;48.686;9.170;2022-11-12T11:31:35;16.10;98.80
39621;DHT22;25309;48.686;9.170;2022-11-12T11:34:32;16.10;98.80
39621;DHT22;25309;48.686;9.170;2022-11-12T11:37:24;16.20;98.50
39621;DHT22;25309;48.686;9.170;2022-11-12T11:40:17;16.20;98.80
39621;DHT22;25309;48.686;9.170;2022-11-12T11:43:19;16.20;98.40
39621;DHT22;25309;48.686;9.170;2022-11-12T11:46:15;16.10;98.50
39621;DHT22;25309;48.686;9.170;2022-11-12T11:49:31;16.00;99.00
39621;DHT22;25309;48.686;9.170;2022-11-12T11:52:37;16.00;98.90
39621;DHT22;25309;48.686;9.170;2022-11-12T11:55:32;16.00;98.80
39621;DHT22;25309;48.686;9.170;2022-11-12T11:58:51;16.00;98.70
39621;DHT22;25309;48.686;9.170;2022-11-12T12:01:57;16.00;98.90
39621;DHT22;25309;48.686;9.170;2022-11-12T12:04:46;15.80;98.80
39621;DHT22;25309;48.686;9.170;2022-11-12T12:07:40;15.90;98.90
39621;DHT22;25309;48.686;9.170;2022-11-12T12:10:40;15.90;99.10
39621;DHT22;25309;48.686;9.170;2022-11-12T12:14:03;16.00;98.40
39621;DHT22;25309;48.686;9.170;2022-11-12T12:16:59;15.90;99.10
39621;DHT22;25309;48.686;9.170;2022-11-12T12:19:56;15.90;98.50
39621;DHT22;25309;48.686;9.170;2022-11-12T12:22:49;15.80;98.90
39621;DHT22;25309;48.686;9.170;2022-11-12T12:25:39;15.70;99.00
39621;DHT22;25309;48.686;9.170;2022-11-12T12:28:32;15.80;98.80
39621;DHT22;25309;48.686;9.170;2022-11-12T12:31:23;15.80;99.00
39621;DHT22;25309;48.686;9.170;2022-11-12T12:34:15;16.00;98.50
39621;DHT22;25309;48.686;9.170;2022-11-12T12:37:06;15.90;98.10
39621;DHT22;25309;48.686;9.170;2022-11-12T12:40:00;15.90;97.20
39621;DHT22;25309;48.686;9.170;2022-11-12T12:42:53;15.90;97.70
39621;DHT22;25309;48.686;9.170;2022-11-12T12:45:40;16.00;97.30
39621;DHT22;25309;48.686;9.170;2022-11-12T12:48:30;15.90;96.70
39621;DHT22;25309;48.686;9.170;2022-11-12T12:51:17;15.70;96.60
39621;DHT22;25309;48.686;9.170;2022-11-12T12:54:03;15.40;96.50
39621;DHT22;25309;48.686;9.170;2022-11-12T12:56:50;15.30;96.70
39621;DHT22;25309;48.686;9.170;2022-11-12T12:59:35;15.20;97.10
39621;DHT22;25309;48.686;9.170;2022-11-12T13:02:23;15.10;97.20
39621;DHT22;25309;48.686;9.170;2022-11-12T13:05:23;15.00;97.90
39621;DHT22;25309;48.686;9.170;2022-11-12T13:08:11;15.10;97.80
39621;DHT22;25309;48.686;9.170;2022-11-12T13:10:57;15.10;97.60
39621;DHT22;25309;48.686;9.170;2022-11-12T13:13:45;15.00;97.60
39621;DHT22;25309;48.686;9.170;2022-11-12T13:16:56;14.90;98.10
39621;DHT22;25309;48.686;9.170;2022-11-12T13:19:45;14.90;98.00
39621;DHT22;25309;48.686;9.170;2022-11-12T13:22:48;14.90;98.10
39621;DHT22;25309;48.686;9.170;2022-11-12T13:25:35;14.90;98.00
39621;DHT22;25309;48.686;9.170;2022-11-12T13:28:20;14.90;98.10
39621;DHT22;25309;48.686;9.170;2022-11-12T13:31:26;14.90;98.20
39621;DHT22;25309;48.686;9.170;2022-11-12T13:34:23;14.80;98.20
39621;DHT22;25309;48.686;9.170;2022-11-12T13:37:18;14.80;98.30
39621;DHT22;25309;48.686;9.170;2022-11-12T13:40:09;14.70;98.30
39621;DHT22;25309;48.686;9.170;2022-11-12T13:43:02;14.60;98.70
39621;DHT22;25309;48.686;9.170;2022-11-12T13:45:52;14.60;99.00
39621;DHT22;25309;48.686;9.170;2022-11-12T13:48:42;14.50;99.20
39621;DHT22;25309;48.686;9.170;2022-11-12T13:51:37;14.40;99.50
39621;DHT22;25309;48.686;9.170;2022-11-12T13:54:25;14.50;99.70
39621;DHT22;25309;48.686;9.170;2022-11-12T14:00:23;14.30;99.60
39621;DHT22;25309;48.686;9.170;2022-11-12T14:03:16;14.20;99.70
39621;DHT22;25309;48.686;9.170;2022-11-12T14:06:06;14.10;99.80
39621;DHT22;25309;48.686;9.170;2022-11-12T14:09:11;14.10;99.80
39621;DHT22;25309;48.686;9.170;2022-11-12T14:12:14;14.00;99.90
39621;DHT22;25309;48.686;9.170;2022-11-12T14:15:23;14.00;99.90
39621;DHT22;25309;48.686;9.170;2022-11-12T14:18:19;14.10;99.90
39621;DHT22;25309;48.686;9.170;2022-11-12T14:21:13;14.00;99.90
39621;DHT22;25309;48.686;9.170;2022-11-12T14:24:01;14.00;99.90
39621;DHT22;25309;48.686;9.170;2022-11-12T14:26:47;13.90;99.90
39621;DHT22;25309;48.686;9.170;2022-11-12T14:29:32;13.90;99.90
39621;DHT22;25309;48.686;9.170;2022-11-12T14:32:22;13.80;99.90
39621;DHT22;25309;48.686;9.170;2022-11-12T14:35:35;13.80;99.90
39621;DHT22;25309;48.686;9.170;2022-11-12T14:38:26;13.70;99.90
39621;DHT22;25309;48.686;9.170;2022-11-12T14:41:18;13.60;99.90
39621;DHT22;25309;48.686;9.170;2022-11-12T14:44:05;13.60;99.90
39621;DHT22;25309;48.686;9.170;2022-11-12T14:46:58;13.50;99.90
39621;DHT22;25309;48.686;9.170;2022-11-12T14:49:46;13.50;99.90
39621;DHT22;25309;48.686;9.170;2022-11-12T14:52:35;13.40;99.90
39621;DHT22;25309;48.686;9.170;2022-11-12T14:55:24;13.40;99.90
39621;DHT22;25309;48.686;9.170;2022-11-12T14:58:12;13.30;99.90
39621;DHT22;25309;48.686;9.170;2022-11-12T15:01:16;13.30;99.90
39621;DHT22;25309;48.686;9.170;2022-11-12T15:04:22;13.30;99.90
39621;DHT22;25309;48.686;9.170;2022-11-12T15:07:22;13.20;99.90
39621;DHT22;25309;48.686;9.170;2022-11-12T15:10:28;13.20;99.90
39621;DHT22;25309;48.686;9.170;2022-11-12T15:13:16;13.10;99.90
39621;DHT22;25309;48.686;9.170;2022-11-12T15:16:04;13.10;99.90
39621;DHT22;25309;48.686;9.170;2022-11-12T15:19:17;13.10;99.90
39621;DHT22;25309;48.686;9.170;2022-11-12T15:22:05;13.10;99.90
39621;DHT22;25309;48.686;9.170;2022-11-12T15:24:50;13.10;99.90
39621;DHT22;25309;48.686;9.170;2022-11-12T15:27:39;13.00;99.90
39621;DHT22;25309;48.686;9.170;2022-11-12T15:30:26;13.00;99.90
39621;DHT22;25309;48.686;9.170;2022-11-12T15:33:17;12.90;99.90
39621;DHT22;25309;48.686;9.170;2022-11-12T15:36:03;12.90;99.90
39621;DHT22;25309;48.686;9.170;2022-11-12T15:38:51;12.80;99.90
39621;DHT22;25309;48.686;9.170;2022-11-12T15:41:38;12.80;99.90
39621;DHT22;25309;48.686;9.170;2022-11-12T15:44:25;12.80;99.90
39621;DHT22;25309;48.686;9.170;2022-11-12T15:47:18;12.70;99.90
39621;DHT22;25309;48.686;9.170;2022-11-12T15:50:14;12.70;99.90
39621;DHT22;25309;48.686;9.170;2022-11-12T15:53:00;12.60;99.90
39621;DHT22;25309;48.686;9.170;2022-11-12T15:55:46;12.50;99.90
39621;DHT22;25309;48.686;9.170;2022-11-12T15:58:33;12.40;99.90
39621;DHT22;25309;48.686;9.170;2022-11-12T16:01:20;12.40;99.90
39621;DHT22;25309;48.686;9.170;2022-11-12T16:04:06;12.40;99.90
39621;DHT22;25309;48.686;9.170;2022-11-12T16:06:52;12.30;99.90
39621;DHT22;25309;48.686;9.170;2022-11-12T16:09:38;12.30;99.90
39621;DHT22;25309;48.686;9.170;2022-11-12T16:12:24;12.20;99.90
39621;DHT22;25309;48.686;9.170;2022-11-12T16:15:12;12.20;99.90
39621;DHT22;25309;48.686;9.170;2022-11-12T16:18:00;12.10;99.90
39621;DHT22;25309;48.686;9.170;2022-11-12T16:20:45;12.10;99.90
39621;DHT22;25309;48.686;9.170;2022-11-12T16:23:31;12.00;99.90
39621;DHT22;25309;48.686;9.170;2022-11-12T16:26:21;11.90;99.90
39621;DHT22;25309;48.686;9.170;2022-11-12T16:29:10;11.90;99.90
39621;DHT22;25309;48.686;9.170;2022-11-12T16:31:56;11.90;99.90
39621;DHT22;25309;48.686;9.170;2022-11-12T16:34:43;11.80;99.90
39621;DHT22;25309;48.686;9.170;2022-11-12T16:37:29;11.70;99.90
39621;DHT22;25309;48.686;9.170;2022-11-12T16:40:15;11.70;99.90
39621;DHT22;25309;48.686;9.170;2022-11-12T16:43:01;11.50;99.90
39621;DHT22;25309;48.686;9.170;2022-11-12T16:45:47;11.40;99.90
39621;DHT22;25309;48.686;9.170;2022-11-12T16:48:32;11.40;99.90
39621;DHT22;25309;48.686;9.170;2022-11-12T16:51:20;11.40;99.90
39621;DHT22;25309;48.686;9.170;2022-11-12T16:54:06;11.30;99.90
39621;DHT22;25309;48.686;9.170;2022-11-12T16:56:52;11.30;99.90
39621;DHT22;25309;48.686;9.170;2022-11-12T16:59:38;11.30;99.90
39621;DHT22;25309;48.686;9.170;2022-11-12T17:02:23;11.20;99.90
39621;DHT22;25309;48.686;9.170;2022-11-12T17:05:13;11.10;99.90
39621;DHT22;25309;48.686;9.170;2022-11-12T17:08:00;11.00;99.90
39621;DHT22;25309;48.686;9.170;2022-11-12T17:10:46;11.00;99.90
39621;DHT22;25309;48.686;9.170;2022-11-12T17:13:31;10.90;99.90
39621;DHT22;25309;48.686;9.170;2022-11-12T17:16:17;10.80;99.90
39621;DHT22;25309;48.686;9.170;2022-11-12T17:19:02;10.80;99.90
39621;DHT22;25309;48.686;9.170;2022-11-12T17:21:48;10.80;99.90
39621;DHT22;25309;48.686;9.170;2022-11-12T17:24:35;10.80;99.90
39621;DHT22;25309;48.686;9.170;2022-11-12T17:27:21;10.70;99.90
39621;DHT22;25309;48.686;9.170;2022-11-12T17:30:07;10.70;99.90
39621;DHT22;25309;48.686;9.170;2022-11-12T17:32:53;10.70;99.90
39621;DHT22;25309;48.686;9.170;2022-11-12T17:35:38;10.60;99.90
39621;DHT22;25309;48.686;9.170;2022-11-12T17:38:24;10.60;99.90
39621;DHT22;25309;48.686;9.170;2022-11-12T17:41:11;10.50;99.90
39621;DHT22;25309;48.686;9.170;2022-11-12T17:43:58;10.50;99.90
39621;DHT22;25309;48.686;9.170;2022-11-12T17:46:44;10.40;99.90
39621;DHT22;25309;48.686;9.170;2022-11-12T17:49:30;10.40;99.90
39621;DHT22;25309;48.686;9.170;2022-11-12T17:52:15;10.40;99.90
39621;DHT22;25309;48.686;9.170;2022-11-12T17:55:01;10.40;99.90
39621;DHT22;25309;48.686;9.170;2022-11-12T17:57:49;10.30;99.90
39621;DHT22;25309;48.686;9.170;2022-11-12T18:00:36;10.20;99.90
39621;DHT22;25309;48.686;9.170;2022-11-12T18:03:22;10.20;99.90
39621;DHT22;25309;48.686;9.170;2022-11-12T18:06:10;10.20;99.90
39621;DHT22;25309;48.686;9.170;2022-11-12T18:08:58;10.10;99.90
39621;DHT22;25309;48.686;9.170;2022-11-12T18:11:46;10.00;99.90
39621;DHT22;25309;48.686;9.170;2022-11-12T18:14:33;10.00;99.90
39621;DHT22;25309;48.686;9.170;2022-11-12T18:17:19;10.00;99.90
39621;DHT22;25309;48.686;9.170;2022-11-12T18:20:06;9.90;99.90
39621;DHT22;25309;48.686;9.170;2022-11-12T18:22:52;9.90;99.90
39621;DHT22;25309;48.686;9.170;2022-11-12T18:25:37;9.90;99.90
39621;DHT22;25309;48.686;9.170;2022-11-12T18:28:23;9.80;99.90
39621;DHT22;25309;48.686;9.170;2022-11-12T18:31:11;9.80;99.90
39621;DHT22;25309;48.686;9.170;2022-11-12T18:33:57;9.80;99.90
39621;DHT22;25309;48.686;9.170;2022-11-12T18:36:42;9.80;99.90
39621;DHT22;25309;48.686;9.170;2022-11-12T18:39:28;9.70;99.90
39621;DHT22;25309;48.686;9.170;2022-11-12T18:42:13;9.70;99.90
39621;DHT22;25309;48.686;9.170;2022-11-12T18:44:59;9.70;99.90
39621;DHT22;25309;48.686;9.170;2022-11-12T18:47:46;9.60;99.90
39621;DHT22;25309;48.686;9.170;2022-11-12T18:50:32;9.60;99.90
39621;DHT22;25309;48.686;9.170;2022-11-12T18:53:17;9.60;99.90
39621;DHT22;25309;48.686;9.170;2022-11-12T18:56:05;9.50;99.90
39621;DHT22;25309;48.686;9.170;2022-11-12T18:58:51;9.40;99.90
39621;DHT22;25309;48.686;9.170;2022-11-12T19:01:36;9.40;99.90
39621;DHT22;25309;48.686;9.170;2022-11-12T19:04:24;9.40;99.90
39621;DHT22;25309;48.686;9.170;2022-11-12T19:07:09;9.40;99.90
39621;DHT22;25309;48.686;9.170;2022-11-12T19:09:55;9.40;99.90
39621;DHT22;25309;48.686;9.170;2022-11-12T19:12:40;9.40;99.90
39621;DHT22;25309;48.686;9.170;2022-11-12T19:15:26;9.40;99.90
39621;DHT22;25309;48.686;9.170;2022-11-12T19:18:12;9.30;99.90
39621;DHT22;25309;48.686;9.170;2022-11-12T19:21:04;9.30;99.90
39621;DHT22;25309;48.686;9.170;2022-11-12T19:23:51;9.20;99.90
39621;DHT22;25309;48.686;9.170;2022-11-12T19:26:38;9.20;99.90
39621;DHT22;25309;48.686;9.170;2022-11-12T19:29:24;9.10;99.90
39621;DHT22;25309;48.686;9.170;2022-11-12T19:32:09;9.00;99.90
39621;DHT22;25309;48.686;9.170;2022-11-12T19:34:55;9.00;99.90
39621;DHT22;25309;48.686;9.170;2022-11-12T19:37:42;8.90;99.90
39621;DHT22;25309;48.686;9.170;2022-11-12T19:40:28;8.80;99.90
39621;DHT22;25309;48.686;9.170;2022-11-12T19:43:13;8.70;99.90
39621;DHT22;25309;48.686;9.170;2022-11-12T19:45:59;8.70;99.90
39621;DHT22;25309;48.686;9.170;2022-11-12T19:48:45;8.70;99.90
39621;DHT22;25309;48.686;9.170;2022-11-12T19:51:30;8.70;99.90
39621;DHT22;25309;48.686;9.170;2022-11-12T19:54:17;8.70;99.90
39621;DHT22;25309;48.686;9.170;2022-11-12T19:57:03;8.60;99.90
39621;DHT22;25309;48.686;9.170;2022-11-12T19:59:49;8.60;99.90
39621;DHT22;25309;48.686;9.170;2022-11-12T20:02:34;8.60;99.90
39621;DHT22;25309;48.686;9.170;2022-11-12T20:05:20;8.60;99.90
39621;DHT22;25309;48.686;9.170;2022-11-12T20:08:05;8.50;99.90
39621;DHT22;25309;48.686;9.170;2022-11-12T20:10:52;8.40;99.90
39621;DHT22;25309;48.686;9.170;2022-11-12T20:13:38;8.40;99.90
39621;DHT22;25309;48.686;9.170;2022-11-12T20:16:24;8.30;99.90
39621;DHT22;25309;48.686;9.170;2022-11-12T20:19:10;8.30;99.90
39621;DHT22;25309;48.686;9.170;2022-11-12T20:21:55;8.20;99.90
39621;DHT22;25309;48.686;9.170;2022-11-12T20:24:41;8.20;99.90
39621;DHT22;25309;48.686;9.170;2022-11-12T20:27:28;8.10;99.90
39621;DHT22;25309;48.686;9.170;2022-11-12T20:30:14;8.00;99.90
39621;DHT22;25309;48.686;9.170;2022-11-12T20:32:59;8.00;99.90
39621;DHT22;25309;48.686;9.170;2022-11-12T20:35:45;8.00;99.90
39621;DHT22;25309;48.686;9.170;2022-11-12T20:38:30;8.00;99.90
39621;DHT22;25309;48.686;9.170;2022-11-12T20:41:17;8.00;99.90
39621;DHT22;25309;48.686;9.170;2022-11-12T20:44:04;8.00;99.90
39621;DHT22;25309;48.686;9.170;2022-11-12T20:46:50;8.00;99.90
39621;DHT22;25309;48.686;9.170;2022-11-12T20:49:35;8.00;99.90
39621;DHT22;25309;48.686;9.170;2022-11-12T20:52:21;8.00;99.90
39621;DHT22;25309;48.686;9.170;2022-11-12T20:55:07;7.90;99.90
39621;DHT22;25309;48.686;9.170;2022-11-12T20:57:53;7.90;99.90
39621;DHT22;25309;48.686;9.170;2022-11-12T21:00:40;7.90;99.90
39621;DHT22;25309;48.686;9.170;2022-11-12T21:03:26;7.90;99.90
39621;DHT22;25309;48.686;9.170;2022-11-12T21:06:13;7.90;99.90
39621;DHT22;25309;48.686;9.170;2022-11-12T21:08:59;7.90;99.90
39621;DHT22;25309;48.686;9.170;2022-11-12T21:11:45;7.80;99.90
39621;DHT22;25309;48.686;9.170;2022-11-12T21:14:30;7.80;99.90
39621;DHT22;25309;48.686;9.170;2022-11-12T21:17:17;7.70;99.90
39621;DHT22;25309;48.686;9.170;2022-11-12T21:20:04;7.70;99.90
39621;DHT22;25309;48.686;9.170;2022-11-12T21:22:50;7.60;99.90
39621;DHT22;25309;48.686;9.170;2022-11-12T21:25:37;7.60;99.90
39621;DHT22;25309;48.686;9.170;2022-11-12T21:28:23;7.50;99.90
39621;DHT22;25309;48.686;9.170;2022-11-12T21:31:10;7.50;99.90
39621;DHT22;25309;48.686;9.170;2022-11-12T21:33:59;7.50;99.90
39621;DHT22;25309;48.686;9.170;2022-11-12T21:36:45;7.40;99.90
39621;DHT22;25309;48.686;9.170;2022-11-12T21:39:31;7.40;99.90
39621;DHT22;25309;48.686;9.170;2022-11-12T21:42:16;7.40;99.90
39621;DHT22;25309;48.686;9.170;2022-11-12T21:45:03;7.40;99.90
39621;DHT22;25309;48.686;9.170;2022-11-12T21:47:48;7.30;99.90
39621;DHT22;25309;48.686;9.170;2022-11-12T21:50:35;7.30;99.90
39621;DHT22;25309;48.686;9.170;2022-11-12T21:53:21;7.30;99.90
39621;DHT22;25309;48.686;9.170;2022-11-12T21:56:09;7.20;99.90
39621;DHT22;25309;48.686;9.170;2022-11-12T21:58:56;7.10;99.90
39621;DHT22;25309;48.686;9.170;2022-11-12T22:01:45;7.10;99.90